Time;durP1;ratioP1;P1;durP2;ratioP2;P2;SDS_P1;SDS_P2;PMS_P1;PMS_P2;Temp;Humidity;BMP_temperature;BMP_pressure;BME280_temperature;BME280_humidity;BME280_pressure;Samples;Min_cycle;Max_cycle;Signal;HPM_P1;HPM_P2
2024/01/06 00:01:17;;;;;;;28.3;16.1;;;;;;;1.03;89.33;97716.666666667;;;;
2024/01/06 00:12:18;;;;;;;36.6;20.5;;;;;;;1.05;88.96;97726.666666667;;;;
2024/01/06 00:22:17;;;;;;;36.6;20.5;;;;;;;1.28;89.28;97713.333333333;;;;
2024/01/06 00:33:17;;;;;;;36.6;20.5;;;;;;;1.34;88.37;97711.666666667;;;;
2024/01/06 00:44:17;;;;;;;30.2;18.2;;;;;;;1.19;89.17;97703.333333333;;;;
2024/01/06 00:54:17;;;;;;;30.2;18.2;;;;;;;1.42;88.63;97686.666666667;;;;
2024/01/06 01:05:17;;;;;;;30.2;18.2;;;;;;;1.43;88.06;97690;;;;
2024/01/06 01:15:17;;;;;;;32.2;17.1;;;;;;;1.32;88.01;97683.333333333;;;;
2024/01/06 01:26:17;;;;;;;32.2;17.1;;;;;;;1.42;88.67;97691.666666667;;;;
2024/01/06 01:37:17;;;;;;;32.2;17.1;;;;;;;1.68;88.74;97680;;;;
2024/01/06 01:47:18;;;;;;;32.1;17;;;;;;;1.71;88;97680;;;;
2024/01/06 01:58:17;;;;;;;32.1;17;;;;;;;1.84;87.46;97661.666666667;;;;
2024/01/06 02:08:17;;;;;;;32.1;17;;;;;;;1.75;87.91;97668.333333333;;;;
2024/01/06 02:19:17;;;;;;;31.6;16.4;;;;;;;1.72;87.24;97661.666666667;;;;
2024/01/06 02:29:17;;;;;;;31.6;16.4;;;;;;;1.75;87.25;97661.666666667;;;;
2024/01/06 02:39:17;;;;;;;31.6;16.4;;;;;;;1.69;87.33;97676.666666667;;;;
2024/01/06 02:50:17;;;;;;;24.7;15.4;;;;;;;1.69;87.65;97671.666666667;;;;
2024/01/06 03:01:17;;;;;;;24.7;15.4;;;;;;;1.78;87.66;97663.333333333;;;;
2024/01/06 03:12:17;;;;;;;27.2;15.9;;;;;;;1.62;87.59;97655;;;;
2024/01/06 03:22:17;;;;;;;27.2;15.9;;;;;;;1.2;88.86;97650;;;;
2024/01/06 03:32:17;;;;;;;27.2;15.9;;;;;;;1.23;89.01;97646.666666667;;;;
2024/01/06 03:43:17;;;;;;;31.9;17.1;;;;;;;1.56;88.39;97641.666666667;;;;
2024/01/06 03:54:17;;;;;;;31.9;17.1;;;;;;;1.63;88.43;97645;;;;
2024/01/06 04:04:17;;;;;;;31.9;17.1;;;;;;;1.84;88.19;97635;;;;
2024/01/06 04:15:17;;;;;;;29;15.5;;;;;;;1.87;87.18;97636.666666667;;;;
2024/01/06 04:26:17;;;;;;;29;15.5;;;;;;;1.78;87.55;97640;;;;
2024/01/06 04:36:17;;;;;;;29;15.5;;;;;;;1.82;87.04;97650;;;;
2024/01/06 04:46:17;;;;;;;37.2;17.6;;;;;;;1.97;87.11;97653.333333333;;;;
2024/01/06 04:57:17;;;;;;;37.2;17.6;;;;;;;1.93;86.97;97668.333333333;;;;
2024/01/06 05:08:18;;;;;;;37.2;17.6;;;;;;;2.07;86.99;97680;;;;
2024/01/06 05:18:18;;;;;;;29.9;15.6;;;;;;;2.24;86.73;97686.666666667;;;;
2024/01/06 05:29:17;;;;;;;29.9;15.6;;;;;;;2.39;86.39;97681.666666667;;;;
2024/01/06 05:39:17;;;;;;;29.9;15.6;;;;;;;2.12;86.86;97676.666666667;;;;
2024/01/06 05:50:17;;;;;;;28.5;17;;;;;;;2.05;87.75;97691.666666667;;;;
2024/01/06 06:01:17;;;;;;;28.5;17;;;;;;;2.08;87.54;97701.666666667;;;;
2024/01/06 06:11:18;;;;;;;26;14.8;;;;;;;2.08;87.9;97696.666666667;;;;
2024/01/06 06:21:17;;;;;;;26;14.8;;;;;;;2;88;97698.333333333;;;;
2024/01/06 06:32:17;;;;;;;26;14.8;;;;;;;2.04;87.72;97700;;;;
2024/01/06 06:43:17;;;;;;;32.4;17.8;;;;;;;1.76;88.71;97703.333333333;;;;
2024/01/06 06:54:17;;;;;;;32.4;17.8;;;;;;;2;88.87;97706.666666667;;;;
2024/01/06 07:04:17;;;;;;;32.4;17.8;;;;;;;2.3;88.61;97711.666666667;;;;
2024/01/06 07:15:17;;;;;;;28.6;16.4;;;;;;;2.42;88.13;97728.333333333;;;;
2024/01/06 07:25:17;;;;;;;28.6;16.4;;;;;;;2.52;87.71;97728.333333333;;;;
2024/01/06 07:36:17;;;;;;;28.6;16.4;;;;;;;2.32;87.72;97720;;;;
2024/01/06 07:47:17;;;;;;;26.8;14.9;;;;;;;2.3;88.38;97720;;;;
2024/01/06 07:57:17;;;;;;;26.8;14.9;;;;;;;2.56;88.16;97733.333333333;;;;
2024/01/06 08:08:18;;;;;;;26.8;14.9;;;;;;;2.56;88.41;97736;;;;
2024/01/06 08:18:18;;;;;;;25.8;16.7;;;;;;;2.61;88.28;97740;;;;
2024/01/06 08:28:18;;;;;;;25.8;16.7;;;;;;;2.9;88.41;97736;;;;
2024/01/06 08:39:17;;;;;;;25.8;16.7;;;;;;;2.97;88.5;97756;;;;
2024/01/06 08:49:18;;;;;;;28.9;16.8;;;;;;;2.98;87.5;97760;;;;
2024/01/06 09:00:17;;;;;;;28.9;16.8;;;;;;;3.03;87.94;97754;;;;
2024/01/06 09:10:18;;;;;;;28.9;16.8;;;;;;;3.12;87.43;97752;;;;
2024/01/06 09:21:17;;;;;;;32.5;20.3;;;;;;;3.43;87.32;97756;;;;
2024/01/06 09:31:17;;;;;;;32.5;20.3;;;;;;;3.27;87.4;97752;;;;
2024/01/06 09:41:17;;;;;;;24.8;15.4;;;;;;;3.43;87.95;97756;;;;
2024/01/06 09:51:18;;;;;;;24.8;15.4;;;;;;;3.35;87.51;97761.666666667;;;;
2024/01/06 10:02:18;;;;;;;24.8;15.4;;;;;;;3.3;87.75;97755;;;;
2024/01/06 10:13:17;;;;;;;29;16.8;;;;;;;3.38;87.47;97755;;;;
2024/01/06 10:23:17;;;;;;;29;16.8;;;;;;;3.78;87.21;97738;;;;
2024/01/06 10:33:18;;;;;;;29;16.8;;;;;;;3.8;87.01;97744;;;;
2024/01/06 10:43:18;;;;;;;26.9;15.3;;;;;;;3.69;86.92;97734;;;;
2024/01/06 10:54:18;;;;;;;26.9;15.3;;;;;;;3.7;86.57;97732;;;;
2024/01/06 11:05:17;;;;;;;26.9;15.3;;;;;;;3.71;87.32;97724;;;;
2024/01/06 11:15:17;;;;;;;27.2;16.8;;;;;;;3.89;87.36;97726;;;;
2024/01/06 11:26:17;;;;;;;27.2;16.8;;;;;;;3.99;87.49;97728;;;;
2024/01/06 11:36:17;;;;;;;27.2;16.8;;;;;;;3.89;87.04;97722;;;;
2024/01/06 11:47:18;;;;;;;26.9;16.1;;;;;;;3.76;87.35;97718;;;;
2024/01/06 11:58:17;;;;;;;26.9;16.1;;;;;;;3.8;87.36;97716;;;;
2024/01/06 12:08:17;;;;;;;26.9;16.1;;;;;;;4.02;87.57;97720;;;;
2024/01/06 12:19:18;;;;;;;22.7;14.6;;;;;;;4.05;87.74;97724;;;;
2024/01/06 12:30:18;;;;;;;22.7;14.6;;;;;;;3.92;87.94;97734;;;;
2024/01/06 12:40:19;;;;;;;22.7;14.6;;;;;;;3.86;88.34;97744;;;;
2024/01/06 12:50:18;;;;;;;22.5;14.7;;;;;;;3.98;88.07;97754;;;;
2024/01/06 13:01:18;;;;;;;22.5;14.7;;;;;;;3.66;89.04;97754;;;;
2024/01/06 13:12:18;;;;;;;24.7;14.1;;;;;;;3.72;88.64;97764;;;;
2024/01/06 13:23:18;;;;;;;24.7;14.1;;;;;;;3.84;88.78;97775;;;;
2024/01/06 13:34:17;;;;;;;24.7;14.1;;;;;;;3.66;89.08;97780;;;;
2024/01/06 13:44:17;;;;;;;27.3;16.1;;;;;;;3.59;88.94;97780;;;;
2024/01/06 13:55:18;;;;;;;27.3;16.1;;;;;;;3.29;90.07;97790;;;;
2024/01/06 14:06:18;;;;;;;27.3;16.1;;;;;;;3.41;89.94;97800;;;;
2024/01/06 14:16:18;;;;;;;20.2;12.1;;;;;;;3.35;90.03;97808.333333333;;;;
2024/01/06 14:27:18;;;;;;;20.2;12.1;;;;;;;3.18;90.14;97813.333333333;;;;
2024/01/06 14:37:18;;;;;;;20.2;12.1;;;;;;;3.31;89.69;97823.333333333;;;;
2024/01/06 14:48:18;;;;;;;19.2;11.3;;;;;;;3.23;89.89;97825;;;;
2024/01/06 14:58:18;;;;;;;19.2;11.3;;;;;;;3.19;89.83;97816.666666667;;;;
2024/01/06 15:08:18;;;;;;;19.2;11.3;;;;;;;2.91;90.2;97836.666666667;;;;
2024/01/06 15:19:18;;;;;;;20.9;11.9;;;;;;;3;90.51;97835;;;;
2024/01/06 15:29:18;;;;;;;20.9;11.9;;;;;;;2.9;90.49;97845;;;;
2024/01/06 15:39:18;;;;;;;20.9;11.9;;;;;;;2.88;90.55;97853.333333333;;;;
2024/01/06 15:50:18;;;;;;;22.2;11.8;;;;;;;2.84;90.59;97848.333333333;;;;
2024/01/06 16:01:18;;;;;;;22.2;11.8;;;;;;;2.85;90.45;97848.333333333;;;;
2024/01/06 16:12:18;;;;;;;22.7;12.9;;;;;;;2.72;90.74;97850;;;;
2024/01/06 16:23:18;;;;;;;22.7;12.9;;;;;;;2.72;90.78;97856.666666667;;;;
2024/01/06 16:34:18;;;;;;;22.7;12.9;;;;;;;2.68;90.48;97853.333333333;;;;
2024/01/06 16:45:18;;;;;;;26.8;14.2;;;;;;;2.55;90.21;97863.333333333;;;;
2024/01/06 16:55:18;;;;;;;26.8;14.2;;;;;;;2.33;90.44;97878.333333333;;;;
2024/01/06 17:06:18;;;;;;;26.8;14.2;;;;;;;2.26;90.43;97883.333333333;;;;
2024/01/06 17:16:18;;;;;;;30;16.4;;;;;;;2.25;89.77;97890;;;;
2024/01/06 17:26:18;;;;;;;30;16.4;;;;;;;1.89;90.31;97896.666666667;;;;
2024/01/06 17:37:18;;;;;;;30;16.4;;;;;;;1.96;89.53;97898.333333333;;;;
2024/01/06 17:47:18;;;;;;;24.1;13.6;;;;;;;1.85;89.93;97894;;;;
2024/01/06 17:58:18;;;;;;;24.1;13.6;;;;;;;1.6;90.23;97888;;;;
2024/01/06 18:09:19;;;;;;;24.1;13.6;;;;;;;1.57;89.76;97888;;;;
2024/01/06 18:19:18;;;;;;;13.9;6.7;;;;;;;1.53;90.04;97898;;;;
2024/01/06 18:30:18;;;;;;;13.9;6.7;;;;;;;1.43;90.29;97915;;;;
2024/01/06 18:41:18;;;;;;;16.3;8.5;;;;;;;1.45;90.11;97910;;;;
2024/01/06 18:51:18;;;;;;;16.3;8.5;;;;;;;1.45;90.08;97908;;;;
2024/01/06 19:01:19;;;;;;;16.3;8.5;;;;;;;1.36;89.72;97904;;;;
2024/01/06 19:11:18;;;;;;;11.7;7.2;;;;;;;1.23;90;97918.333333333;;;;
2024/01/06 19:21:19;;;;;;;11.7;7.2;;;;;;;1.11;90.64;97920;;;;
2024/01/06 19:32:18;;;;;;;11.7;7.2;;;;;;;1.28;90.26;97920;;;;
2024/01/06 19:43:18;;;;;;;8.7;5.1;;;;;;;1.2;90.15;97925;;;;
2024/01/06 19:53:18;;;;;;;8.7;5.1;;;;;;;1.07;90.64;97933.333333333;;;;
2024/01/06 20:03:18;;;;;;;8.7;5.1;;;;;;;1.04;90.7;97930;;;;
2024/01/06 20:14:18;;;;;;;13.7;6.5;;;;;;;1.06;90.64;97933.333333333;;;;
2024/01/06 20:24:18;;;;;;;13.7;6.5;;;;;;;0.81;90.83;97931.666666667;;;;
2024/01/06 20:35:19;;;;;;;13.7;6.5;;;;;;;0.87;90.94;97938.333333333;;;;
2024/01/06 20:46:18;;;;;;;7.6;4.5;;;;;;;0.86;90.92;97940;;;;
2024/01/06 20:56:18;;;;;;;7.6;4.5;;;;;;;0.64;91.42;97946.666666667;;;;
2024/01/06 21:06:18;;;;;;;7.6;4.5;;;;;;;0.8;91.04;97933.333333333;;;;
2024/01/06 21:17:18;;;;;;;9.3;5.2;;;;;;;0.59;91.4;97938;;;;
2024/01/06 21:27:18;;;;;;;9.3;5.2;;;;;;;0.56;91.1;97940;;;;
2024/01/06 21:38:18;;;;;;;9.3;5.2;;;;;;;0.27;91.23;97944;;;;
2024/01/06 21:48:18;;;;;;;7.7;4.4;;;;;;;0.22;91.1;97950;;;;
2024/01/06 21:58:18;;;;;;;7.7;4.4;;;;;;;-0.03;91.42;97948;;;;
2024/01/06 22:09:18;;;;;;;8.2;5.1;;;;;;;-0.02;91.45;97950;;;;
2024/01/06 22:20:18;;;;;;;8.2;5.1;;;;;;;-0.03;91.21;97954;;;;
2024/01/06 22:31:18;;;;;;;8.2;5.1;;;;;;;-0.32;91.01;97960;;;;
2024/01/06 22:42:18;;;;;;;9.5;5.1;;;;;;;-0.14;90.85;97960;;;;
2024/01/06 22:52:19;;;;;;;9.5;5.1;;;;;;;-0.28;90.17;97968;;;;
2024/01/06 23:02:19;;;;;;;9.5;5.1;;;;;;;-0.54;90.47;97978.333333333;;;;
2024/01/06 23:12:18;;;;;;;10.4;6.7;;;;;;;-0.65;90.79;97980;;;;
2024/01/06 23:23:18;;;;;;;10.4;6.7;;;;;;;-0.86;90.81;97988.333333333;;;;
2024/01/06 23:33:18;;;;;;;10.4;6.7;;;;;;;-0.8;90.65;97986.666666667;;;;
2024/01/06 23:44:18;;;;;;;9.4;5.3;;;;;;;-0.87;90.97;98000;;;;
2024/01/06 23:54:18;;;;;;;9.4;5.3;;;;;;;-0.87;90.7;97998.333333333;;;;
